Time;durP1;ratioP1;P1;durP2;ratioP2;P2;SDS_P1;SDS_P2;PMS_P1;PMS_P2;Temp;Humidity;BMP_temperature;BMP_pressure;BME280_temperature;BME280_humidity;BME280_pressure;Samples;Min_cycle;Max_cycle;Signal;HPM_P1;HPM_P2
2022/10/25 00:01:19;;;;;;;2.77;1.40;;;;;;;13.77;90.05;98821.97;5061303;27;102607;-69
2022/10/25 00:03:49;;;;;;;2.40;0.97;;;;;;;13.73;90.44;98825.00;5065645;27;104083;-69
2022/10/25 00:06:17;;;;;;;1.53;1.00;;;;;;;13.80;90.13;98815.56;5060170;27;102780;-70
2022/10/25 00:08:45;;;;;;;1.17;0.80;;;;;;;14.05;89.01;98819.66;5056808;27;103215;-69
2022/10/25 00:11:20;;;;;;;1.20;0.80;;;;;;;13.83;89.77;98820.63;5058674;27;102623;-69
2022/10/25 00:13:49;;;;;;;0.80;0.70;;;;;;;13.93;89.59;98817.06;5060427;27;103600;-70
2022/10/25 00:16:19;;;;;;;1.43;1.00;;;;;;;14.00;89.11;98825.38;5055080;27;104407;-69
2022/10/25 00:18:47;;;;;;;2.97;1.03;;;;;;;13.90;89.69;98827.94;5055762;27;103459;-69
2022/10/25 00:21:15;;;;;;;1.20;1.03;;;;;;;13.92;89.50;98822.50;5056790;27;103321;-69
2022/10/25 00:23:43;;;;;;;1.80;0.90;;;;;;;13.79;89.22;98824.50;5056960;27;102724;-69
2022/10/25 00:26:11;;;;;;;1.90;0.97;;;;;;;13.47;91.56;98826.31;5058159;27;104059;-69
2022/10/25 00:28:41;;;;;;;1.30;1.20;;;;;;;13.62;90.65;98812.63;5058855;27;103213;-69
2022/10/25 00:31:12;;;;;;;1.40;0.90;;;;;;;13.48;92.63;98822.69;5059332;27;103155;-69
2022/10/25 00:33:41;;;;;;;3.03;1.23;;;;;;;13.50;92.26;98823.41;5062682;27;102990;-69
2022/10/25 00:36:11;;;;;;;2.03;1.10;;;;;;;13.68;90.99;98827.19;5064651;27;104250;-69
2022/10/25 00:38:39;;;;;;;1.33;1.00;;;;;;;13.76;91.27;98819.44;5062610;27;104419;-69
2022/10/25 00:41:08;;;;;;;2.30;1.07;;;;;;;13.66;90.91;98819.38;5065923;27;102686;-70
2022/10/25 00:43:38;;;;;;;2.50;0.97;;;;;;;13.73;90.62;98820.53;5061682;27;102746;-72
2022/10/25 00:46:13;;;;;;;1.23;0.97;;;;;;;13.83;89.88;98816.16;5062649;27;103318;-73
2022/10/25 00:48:47;;;;;;;1.40;1.07;;;;;;;13.95;89.56;98819.56;5063738;27;103311;-73
2022/10/25 00:51:15;;;;;;;3.30;1.10;;;;;;;13.93;89.39;98816.22;5063875;27;102781;-73
2022/10/25 00:53:43;;;;;;;1.43;0.87;;;;;;;14.03;88.81;98814.47;5063287;27;102672;-73
2022/10/25 00:56:16;;;;;;;2.70;1.23;;;;;;;14.07;88.39;98817.69;5064599;27;103376;-73
2022/10/25 00:58:46;;;;;;;1.10;0.80;;;;;;;13.98;88.72;98819.31;5064498;27;103079;-73
2022/10/25 01:01:15;;;;;;;1.67;0.90;;;;;;;14.02;88.29;98826.06;5059929;27;104672;-73
2022/10/25 01:03:45;;;;;;;2.67;0.90;;;;;;;14.05;88.00;98824.97;5065371;27;102709;-73
2022/10/25 01:06:18;;;;;;;2.07;0.87;;;;;;;13.91;88.01;98818.16;5064623;27;104333;-73
2022/10/25 01:08:49;;;;;;;2.93;1.27;;;;;;;13.85;89.55;98821.31;5065241;27;103205;-73
2022/10/25 01:11:18;;;;;;;1.33;0.80;;;;;;;13.93;88.85;98821.53;5063764;27;102622;-73
2022/10/25 01:13:48;;;;;;;2.43;1.30;;;;;;;13.90;88.74;98829.75;5066766;27;102819;-73
2022/10/25 01:16:27;;;;;;;2.13;1.07;;;;;;;13.87;89.59;98832.66;5061473;27;104486;-73
2022/10/25 01:19:07;;;;;;;2.10;1.00;;;;;;;13.87;89.02;98817.56;5062459;27;105374;-73
2022/10/25 01:21:47;;;;;;;1.20;1.00;;;;;;;13.98;88.79;98815.84;5061883;27;102745;-73
2022/10/25 01:24:57;;;;;;;2.20;0.80;;;;;;;14.02;88.42;98818.09;5067326;27;103867;-73
2022/10/25 01:27:47;;;;;;;1.23;0.80;;;;;;;13.98;88.09;98814.00;5060449;27;103499;-73
2022/10/25 01:30:20;;;;;;;0.93;0.90;;;;;;;13.88;88.71;98813.94;5060526;27;103261;-73
2022/10/25 01:32:58;;;;;;;2.07;1.00;;;;;;;13.81;89.77;98818.06;5056752;27;103003;-73
2022/10/25 01:35:29;;;;;;;1.47;1.07;;;;;;;13.90;89.04;98813.81;5060759;27;103972;-73
2022/10/25 01:38:17;;;;;;;1.70;1.10;;;;;;;13.79;89.41;98819.19;5059123;27;103916;-72
2022/10/25 01:40:52;;;;;;;1.67;1.10;;;;;;;13.94;88.84;98821.41;5070000;27;104287;-73
2022/10/25 01:43:30;;;;;;;1.40;1.30;;;;;;;13.92;88.70;98817.19;5059374;27;102767;-72
2022/10/25 01:46:07;;;;;;;2.23;1.10;;;;;;;13.94;88.35;98813.44;5048010;27;104090;-73
2022/10/25 01:48:41;;;;;;;2.00;1.30;;;;;;;13.87;88.80;98822.03;5060948;27;104346;-73
2022/10/25 01:51:11;;;;;;;3.40;1.13;;;;;;;13.77;88.96;98826.44;5056197;27;103389;-73
2022/10/25 01:53:45;;;;;;;3.07;1.30;;;;;;;13.78;88.77;98830.78;5056036;27;104758;-73
2022/10/25 01:56:19;;;;;;;2.27;1.13;;;;;;;13.82;88.73;98829.53;5056416;27;103039;-73
2022/10/25 01:59:00;;;;;;;2.70;1.40;;;;;;;13.72;88.73;98826.84;5054975;27;103308;-73
2022/10/25 02:01:38;;;;;;;2.73;1.03;;;;;;;13.80;88.50;98826.19;5051451;27;103332;-73
2022/10/25 02:04:17;;;;;;;2.47;1.30;;;;;;;13.62;87.80;98833.00;5058810;27;104245;-73
2022/10/25 02:06:54;;;;;;;2.27;1.37;;;;;;;13.73;88.37;98819.69;5058643;27;102752;-73
2022/10/25 02:09:31;;;;;;;3.70;1.30;;;;;;;13.52;89.49;98829.44;5053465;27;104078;-72
2022/10/25 02:12:00;;;;;;;1.77;1.30;;;;;;;13.55;89.69;98829.19;5054573;27;103515;-72
2022/10/25 02:14:34;;;;;;;4.53;1.30;;;;;;;13.68;89.62;98821.88;5054945;27;104226;-72
2022/10/25 02:17:07;;;;;;;8.13;1.37;;;;;;;13.61;90.10;98823.38;5055726;27;102940;-72
2022/10/25 02:19:39;;;;;;;3.03;1.43;;;;;;;13.64;90.23;98817.81;5053081;27;103307;-73
2022/10/25 02:22:09;;;;;;;2.23;1.53;;;;;;;13.46;90.30;98832.59;5055226;27;103257;-73
2022/10/25 02:24:39;;;;;;;2.20;1.40;;;;;;;13.61;90.43;98826.03;5052900;27;105204;-73
2022/10/25 02:27:10;;;;;;;3.73;1.20;;;;;;;13.46;91.08;98828.13;5052884;27;104555;-73
2022/10/25 02:29:39;;;;;;;1.73;1.30;;;;;;;13.56;90.72;98822.91;5053712;27;104152;-73
2022/10/25 02:32:07;;;;;;;3.13;1.23;;;;;;;13.56;90.68;98823.75;5055749;27;103234;-73
2022/10/25 02:34:36;;;;;;;1.83;1.30;;;;;;;13.35;91.92;98823.72;5054167;27;102784;-73
2022/10/25 02:37:04;;;;;;;2.07;1.27;;;;;;;13.41;91.92;98825.00;5055747;27;104301;-73
2022/10/25 02:39:33;;;;;;;2.50;1.07;;;;;;;13.53;91.91;98820.50;5052436;27;103998;-73
2022/10/25 02:46:05;;;;;;;3.37;1.33;;;;;;;13.64;90.59;98820.47;5055307;27;104024;-72
2022/10/25 02:48:33;;;;;;;2.20;1.43;;;;;;;13.55;90.90;98815.91;5054369;27;104027;-73
2022/10/25 02:51:02;;;;;;;1.80;1.20;;;;;;;13.72;90.40;98820.69;5053589;27;104233;-72
2022/10/25 02:53:32;;;;;;;2.77;1.10;;;;;;;13.69;90.82;98811.16;5053657;27;102666;-72
2022/10/25 02:56:01;;;;;;;1.40;1.20;;;;;;;13.65;90.40;98811.53;5055600;27;102764;-72
2022/10/25 02:58:30;;;;;;;2.70;1.43;;;;;;;13.66;90.37;98814.06;5054727;27;104256;-72
2022/10/25 03:00:59;;;;;;;2.60;1.47;;;;;;;13.58;90.66;98805.03;5053568;27;104119;-72
2022/10/25 03:03:28;;;;;;;1.27;1.13;;;;;;;13.68;90.68;98808.63;5054790;27;106032;-71
2022/10/25 03:05:56;;;;;;;1.97;1.07;;;;;;;13.68;90.67;98803.31;5055816;27;102724;-72
2022/10/25 03:08:28;;;;;;;3.83;2.03;;;;;;;13.64;90.41;98805.34;5056919;27;102813;-72
2022/10/25 03:10:56;;;;;;;1.20;1.00;;;;;;;13.72;90.06;98810.06;5055337;27;103771;-72
2022/10/25 03:13:23;;;;;;;3.17;1.47;;;;;;;13.52;91.04;98806.41;5053587;27;103324;-72
2022/10/25 03:15:51;;;;;;;1.70;1.40;;;;;;;13.43;91.59;98808.94;5054689;27;103077;-72
2022/10/25 03:18:19;;;;;;;4.90;1.80;;;;;;;13.59;90.46;98812.03;5074753;27;104214;-71
2022/10/25 03:20:47;;;;;;;2.53;1.30;;;;;;;13.31;92.41;98818.75;5055171;27;103324;-72
2022/10/25 03:23:15;;;;;;;1.90;1.50;;;;;;;13.46;91.25;98816.66;5053328;27;105273;-72
2022/10/25 03:25:44;;;;;;;2.03;1.50;;;;;;;13.50;91.40;98820.75;5069899;27;103343;-72
2022/10/25 03:28:12;;;;;;;3.50;1.27;;;;;;;13.62;90.52;98819.72;5055283;27;103906;-72
2022/10/25 03:30:42;;;;;;;1.90;1.47;;;;;;;13.67;90.22;98814.91;5054243;27;103302;-72
2022/10/25 03:33:10;;;;;;;2.33;1.20;;;;;;;13.56;90.86;98817.63;5052674;27;103223;-71
2022/10/25 03:35:37;;;;;;;3.80;1.23;;;;;;;13.65;89.99;98822.97;5054876;27;102682;-72
2022/10/25 03:38:05;;;;;;;3.40;1.53;;;;;;;13.69;89.81;98826.25;5056294;27;102965;-72
2022/10/25 03:40:35;;;;;;;1.80;1.20;;;;;;;13.73;89.33;98820.53;5052556;27;103262;-72
2022/10/25 03:43:04;;;;;;;1.80;1.17;;;;;;;13.75;88.90;98825.72;5060884;27;103276;-73
2022/10/25 03:45:32;;;;;;;1.67;1.30;;;;;;;13.60;89.39;98834.94;5056647;27;103395;-71
2022/10/25 03:48:00;;;;;;;2.97;1.50;;;;;;;13.68;89.62;98833.34;5055938;27;102762;-72
2022/10/25 03:50:28;;;;;;;2.40;1.10;;;;;;;13.61;89.65;98831.34;5052783;27;104192;-71
2022/10/25 03:52:55;;;;;;;5.40;1.20;;;;;;;13.62;89.70;98823.22;5052211;27;103303;-71
2022/10/25 03:55:23;;;;;;;2.10;1.70;;;;;;;13.60;90.21;98827.00;5054141;27;102725;-71
2022/10/25 03:57:51;;;;;;;3.53;1.43;;;;;;;13.62;89.76;98838.31;5054429;27;104131;-70
2022/10/25 04:00:20;;;;;;;1.50;1.40;;;;;;;13.60;89.77;98832.28;5051033;27;104122;-71
2022/10/25 04:02:53;;;;;;;1.70;1.57;;;;;;;13.53;90.00;98839.91;5051949;27;103415;-71
2022/10/25 04:05:28;;;;;;;3.67;1.67;;;;;;;13.54;89.82;98838.09;5056513;27;103475;-70
2022/10/25 04:07:56;;;;;;;1.50;1.10;;;;;;;13.57;90.16;98840.50;5056464;27;104050;-71
2022/10/25 04:10:24;;;;;;;1.83;1.30;;;;;;;13.57;89.94;98843.16;5067500;27;104094;-71
2022/10/25 04:12:53;;;;;;;3.17;1.70;;;;;;;13.51;90.17;98835.69;5052099;27;103326;-70
2022/10/25 04:15:23;;;;;;;3.73;1.60;;;;;;;13.57;89.84;98837.84;5045788;27;102820;-71
2022/10/25 04:17:51;;;;;;;2.33;1.60;;;;;;;13.53;89.92;98842.56;5054204;27;102738;-71
2022/10/25 04:20:20;;;;;;;3.07;1.47;;;;;;;13.35;91.21;98842.28;5054253;27;103412;-71
2022/10/25 04:22:53;;;;;;;5.70;1.70;;;;;;;13.45;90.73;98847.66;5053531;27;104213;-74
2022/10/25 04:25:21;;;;;;;5.17;1.50;;;;;;;13.48;90.40;98842.09;5052178;27;102831;-73
2022/10/25 04:27:49;;;;;;;2.93;2.20;;;;;;;13.38;91.00;98835.88;5053789;27;102802;-73
2022/10/25 04:30:17;;;;;;;2.17;1.30;;;;;;;13.46;90.85;98840.56;5054360;27;103038;-74
2022/10/25 04:32:47;;;;;;;2.97;1.40;;;;;;;13.47;90.73;98844.91;5049939;27;102783;-74
2022/10/25 04:35:15;;;;;;;3.57;1.93;;;;;;;13.40;90.61;98838.41;5053198;27;102919;-74
2022/10/25 04:37:43;;;;;;;3.50;1.57;;;;;;;13.33;91.05;98841.53;5054224;27;102774;-72
2022/10/25 04:40:11;;;;;;;4.07;1.60;;;;;;;13.52;90.39;98842.72;5059594;27;104366;-72
2022/10/25 04:42:39;;;;;;;5.77;1.60;;;;;;;13.31;91.36;98851.44;5062106;27;103257;-72
2022/10/25 04:45:07;;;;;;;3.47;1.83;;;;;;;13.18;92.37;98844.59;5057575;27;102650;-72
2022/10/25 04:47:35;;;;;;;1.73;1.40;;;;;;;13.35;91.77;98847.59;5061602;27;103058;-72
2022/10/25 04:50:06;;;;;;;3.00;1.33;;;;;;;13.26;91.50;98843.03;5062698;27;103819;-72
2022/10/25 04:52:34;;;;;;;3.93;2.03;;;;;;;13.43;91.45;98846.97;5063959;27;103278;-72
2022/10/25 04:55:02;;;;;;;2.60;1.70;;;;;;;13.43;90.75;98838.16;5061791;27;102700;-72
2022/10/25 04:57:29;;;;;;;3.80;1.70;;;;;;;13.49;90.63;98842.97;5060896;27;102680;-72
2022/10/25 04:59:58;;;;;;;2.27;1.50;;;;;;;13.50;90.72;98852.63;5058479;27;103492;-72
2022/10/25 05:02:25;;;;;;;1.83;1.30;;;;;;;13.53;90.72;98861.16;5062502;27;103209;-73
2022/10/25 05:04:53;;;;;;;2.70;1.43;;;;;;;13.41;90.84;98850.72;5064197;27;102654;-73
2022/10/25 05:07:25;;;;;;;2.03;1.40;;;;;;;13.46;90.89;98849.38;5064824;27;103417;-73
2022/10/25 05:09:53;;;;;;;3.67;1.50;;;;;;;13.44;91.07;98855.75;5064033;27;103413;-72
2022/10/25 05:12:23;;;;;;;2.93;1.87;;;;;;;13.50;90.39;98857.94;5063312;27;104213;-72
2022/10/25 05:14:50;;;;;;;3.97;1.50;;;;;;;13.49;90.67;98858.88;5062402;27;102655;-72
2022/10/25 05:17:18;;;;;;;3.73;2.23;;;;;;;13.27;91.38;98865.94;5064040;27;102659;-73
2022/10/25 05:19:46;;;;;;;2.33;1.50;;;;;;;13.48;90.53;98854.53;5062154;27;103185;-71
2022/10/25 05:22:14;;;;;;;2.57;1.67;;;;;;;13.57;89.85;98856.44;5064392;27;103323;-73
2022/10/25 05:24:43;;;;;;;4.43;2.00;;;;;;;13.49;89.77;98858.88;5062859;27;102674;-74
2022/10/25 05:27:11;;;;;;;4.60;1.83;;;;;;;13.57;89.43;98861.75;5063748;27;103816;-71
2022/10/25 05:29:39;;;;;;;4.13;1.60;;;;;;;13.50;90.37;98865.88;5037223;27;103719;-72
2022/10/25 05:32:07;;;;;;;2.43;1.60;;;;;;;13.52;89.54;98863.94;5052360;27;104337;-72
2022/10/25 05:34:34;;;;;;;2.43;1.47;;;;;;;13.48;89.77;98868.66;5055917;27;102648;-72
2022/10/25 05:37:02;;;;;;;2.70;1.70;;;;;;;13.49;89.49;98865.03;5059070;27;103224;-72
2022/10/25 05:39:30;;;;;;;2.70;1.83;;;;;;;13.50;89.68;98865.88;5053396;27;104131;-72
2022/10/25 05:42:05;;;;;;;2.60;1.70;;;;;;;13.43;90.31;98856.72;5048413;27;103206;-73
2022/10/25 05:44:32;;;;;;;2.43;1.67;;;;;;;13.34;90.81;98859.16;5059708;27;103361;-73
2022/10/25 05:47:00;;;;;;;2.90;1.67;;;;;;;13.21;91.05;98866.44;5059972;27;103867;-74
2022/10/25 05:49:28;;;;;;;4.47;1.50;;;;;;;13.35;90.85;98867.97;5063544;27;104176;-74
2022/10/25 05:51:56;;;;;;;3.13;1.67;;;;;;;13.20;91.19;98866.53;5064426;27;103296;-73
2022/10/25 05:54:23;;;;;;;4.33;1.90;;;;;;;13.10;92.47;98869.09;5064925;27;102609;-74
2022/10/25 05:56:51;;;;;;;3.50;1.93;;;;;;;13.21;91.80;98878.84;5066154;27;103110;-74
2022/10/25 05:59:21;;;;;;;3.97;1.80;;;;;;;13.22;91.61;98878.72;5065642;27;103609;-73
2022/10/25 06:01:49;;;;;;;3.63;1.93;;;;;;;13.35;90.91;98879.44;5060173;27;103227;-74
2022/10/25 06:04:17;;;;;;;5.80;1.60;;;;;;;13.26;91.44;98885.47;5065460;27;105080;-73
2022/10/25 06:06:47;;;;;;;5.70;1.73;;;;;;;13.01;93.13;98885.72;5063672;27;104117;-73
2022/10/25 06:09:14;;;;;;;4.10;2.00;;;;;;;13.10;92.94;98895.63;5065989;27;103295;-73
2022/10/25 06:11:42;;;;;;;4.40;1.87;;;;;;;13.12;92.65;98892.84;5065107;27;103300;-73
2022/10/25 06:14:10;;;;;;;2.73;1.80;;;;;;;13.26;91.94;98888.13;5064710;27;102958;-73
2022/10/25 06:16:40;;;;;;;4.27;2.10;;;;;;;13.27;91.81;98886.31;5065157;27;103744;-73
2022/10/25 06:19:08;;;;;;;3.63;2.00;;;;;;;13.31;91.74;98883.28;5064952;27;103912;-73
2022/10/25 06:21:35;;;;;;;3.33;1.80;;;;;;;13.24;91.63;98892.72;5061335;27;103218;-75
2022/10/25 06:24:04;;;;;;;2.90;1.73;;;;;;;13.29;91.09;98895.84;5063815;27;102828;-75
2022/10/25 06:26:32;;;;;;;1.73;1.40;;;;;;;13.51;90.67;98904.72;5059026;27;102595;-75
2022/10/25 06:29:01;;;;;;;3.17;1.77;;;;;;;13.55;89.93;98914.97;5064855;27;103044;-76
2022/10/25 06:31:30;;;;;;;3.33;1.90;;;;;;;13.62;89.74;98918.81;5063302;27;104275;-75
2022/10/25 06:34:00;;;;;;;5.73;1.93;;;;;;;13.63;89.29;98917.84;5065377;27;102605;-75
2022/10/25 06:36:29;;;;;;;4.47;1.67;;;;;;;13.59;89.68;98932.31;5064262;27;102682;-75
2022/10/25 06:38:57;;;;;;;4.00;1.83;;;;;;;13.73;89.61;98928.53;5062905;27;103248;-75
2022/10/25 06:41:35;;;;;;;2.60;1.60;;;;;;;13.84;89.06;98934.66;5062021;27;103602;-75
2022/10/25 06:44:04;;;;;;;8.97;2.00;;;;;;;13.85;88.69;98930.22;5064367;27;102665;-75
2022/10/25 06:46:35;;;;;;;6.10;2.00;;;;;;;13.98;88.11;98936.19;5059799;27;102656;-75
2022/10/25 06:49:24;;;;;;;7.27;1.70;;;;;;;13.94;88.46;98932.13;5064024;27;103536;-73
2022/10/25 06:51:52;;;;;;;3.03;1.97;;;;;;;14.19;87.93;98954.84;5065697;27;103287;-73
2022/10/25 06:54:20;;;;;;;3.80;1.77;;;;;;;14.48;86.65;98951.44;5064221;27;102575;-72
2022/10/25 06:56:48;;;;;;;3.97;1.80;;;;;;;14.77;85.63;98954.31;5065004;27;103710;-73
2022/10/25 06:59:15;;;;;;;3.30;1.70;;;;;;;14.95;84.80;98954.56;5062315;27;104169;-73
2022/10/25 07:01:43;;;;;;;5.00;1.50;;;;;;;15.00;84.00;98957.66;5062140;27;104351;-75
2022/10/25 07:04:11;;;;;;;4.73;1.50;;;;;;;15.21;84.10;98950.50;5066107;27;102540;-74
2022/10/25 07:06:40;;;;;;;4.33;1.70;;;;;;;15.63;82.15;98962.69;5066513;27;102619;-75
2022/10/25 07:09:11;;;;;;;3.93;1.53;;;;;;;15.42;81.65;98964.56;5064382;27;103347;-75
2022/10/25 07:11:41;;;;;;;4.50;1.67;;;;;;;15.48;81.61;98953.41;5064269;27;103172;-75
2022/10/25 07:14:10;;;;;;;3.73;1.60;;;;;;;16.02;80.33;98965.44;5063316;27;102716;-73
2022/10/25 07:16:38;;;;;;;3.43;1.40;;;;;;;15.73;81.74;98964.53;5064722;27;102995;-73
2022/10/25 07:19:06;;;;;;;3.93;1.57;;;;;;;15.51;82.41;98963.81;5063939;27;103982;-74
2022/10/25 07:21:34;;;;;;;2.37;1.50;;;;;;;15.95;80.37;98961.63;5064133;27;103182;-74
2022/10/25 07:24:03;;;;;;;3.33;1.87;;;;;;;16.52;78.72;98972.34;5062763;27;102644;-74
2022/10/25 07:26:34;;;;;;;2.03;1.63;;;;;;;16.73;77.34;98966.84;5062648;27;103644;-74
2022/10/25 07:29:04;;;;;;;4.43;1.57;;;;;;;16.47;78.05;98969.25;5067213;27;103262;-73
2022/10/25 07:31:35;;;;;;;3.10;2.27;;;;;;;16.68;79.02;98967.28;5065690;27;103219;-74
2022/10/25 07:34:04;;;;;;;3.77;1.50;;;;;;;16.77;77.61;98963.78;5065025;27;102603;-74
2022/10/25 07:36:32;;;;;;;3.30;1.53;;;;;;;16.95;75.88;98968.38;5066446;27;103665;-73
2022/10/25 07:39:00;;;;;;;2.93;1.60;;;;;;;16.77;75.62;98966.44;5065182;27;102826;-75
2022/10/25 07:41:29;;;;;;;2.00;1.40;;;;;;;16.94;76.28;98966.69;5046001;27;103257;-73
2022/10/25 07:43:57;;;;;;;6.33;1.30;;;;;;;17.23;75.06;98968.28;5055513;27;102756;-75
2022/10/25 07:46:25;;;;;;;2.47;1.40;;;;;;;17.31;74.44;98975.56;5049779;27;102691;-75
2022/10/25 07:48:53;;;;;;;3.40;1.13;;;;;;;16.99;74.96;98972.41;5057717;27;103399;-75
2022/10/25 07:51:21;;;;;;;2.60;1.40;;;;;;;17.44;75.13;98973.38;5055446;27;102610;-75
2022/10/25 07:53:52;;;;;;;4.23;1.53;;;;;;;17.79;73.60;98976.22;5055877;27;102621;-75
2022/10/25 07:56:21;;;;;;;8.00;2.87;;;;;;;17.55;72.59;98977.72;5056113;27;104192;-75
2022/10/25 07:58:52;;;;;;;7.10;3.50;;;;;;;17.89;72.69;98974.31;5050998;27;103406;-74
2022/10/25 08:01:22;;;;;;;4.60;1.60;;;;;;;18.13;72.04;98968.38;5062838;27;103239;-75
2022/10/25 08:03:50;;;;;;;3.67;1.43;;;;;;;18.14;71.99;98975.41;5063884;27;102709;-74
2022/10/25 08:06:19;;;;;;;3.10;1.60;;;;;;;18.24;71.21;98970.00;5058744;27;102687;-74
2022/10/25 08:08:47;;;;;;;7.27;1.30;;;;;;;18.74;69.81;98970.28;5062058;27;103285;-74
2022/10/25 08:11:17;;;;;;;3.47;1.77;;;;;;;18.80;71.37;98973.19;5063303;27;103199;-74
2022/10/25 08:13:48;;;;;;;3.07;2.27;;;;;;;18.90;71.36;98965.03;5063308;27;102763;-74
2022/10/25 08:16:18;;;;;;;3.53;2.20;;;;;;;19.51;68.48;98957.72;5061913;27;102901;-74
2022/10/25 08:18:46;;;;;;;4.30;2.40;;;;;;;19.39;68.28;98967.06;5063940;27;103322;-74
2022/10/25 08:21:13;;;;;;;5.07;2.30;;;;;;;19.56;69.34;98966.13;5063408;27;103309;-74
2022/10/25 08:23:41;;;;;;;4.43;1.63;;;;;;;19.53;68.52;98968.31;5058650;27;103070;-74
2022/10/25 08:26:09;;;;;;;5.70;1.33;;;;;;;19.13;70.85;98973.41;5067038;27;102685;-74
2022/10/25 08:28:36;;;;;;;1.85;1.17;;;;;;;19.50;67.58;98961.44;5065296;27;104409;-74
2022/10/25 08:31:04;;;;;;;4.32;1.55;;;;;;;19.78;66.97;98970.06;5063451;27;103204;-74
2022/10/25 08:33:35;;;;;;;3.00;1.30;;;;;;;19.49;68.43;98973.13;5065330;27;102639;-74
2022/10/25 08:36:03;;;;;;;2.45;1.20;;;;;;;19.51;67.28;98970.28;5069306;27;102576;-74
2022/10/25 08:38:31;;;;;;;3.45;1.10;;;;;;;19.91;66.87;98967.75;5063053;27;104411;-74
2022/10/25 08:41:08;;;;;;;2.97;1.10;;;;;;;20.13;65.61;98967.13;5065798;27;103223;-74
2022/10/25 08:44:10;;;;;;;4.38;1.25;;;;;;;19.93;65.46;98971.09;5063461;27;102745;-74
2022/10/25 08:46:42;;;;;;;4.13;1.30;;;;;;;20.00;65.78;98957.91;5063799;27;103927;-74
2022/10/25 08:49:18;;;;;;;4.07;1.05;;;;;;;20.28;65.27;98969.22;5059576;27;103390;-74
2022/10/25 08:51:49;;;;;;;3.28;1.33;;;;;;;20.19;64.79;98966.47;5062474;27;103201;-74
2022/10/25 08:54:26;;;;;;;3.38;1.13;;;;;;;20.53;64.89;98965.53;5066964;27;102709;-74
2022/10/25 08:57:02;;;;;;;3.70;1.30;;;;;;;20.50;63.30;98971.25;5064755;27;103616;-74
2022/10/25 08:59:45;;;;;;;6.90;1.20;;;;;;;20.80;63.27;98966.03;5061425;27;104322;-74
2022/10/25 09:02:20;;;;;;;1.95;1.33;;;;;;;20.68;63.83;98967.41;5064299;27;103248;-74
2022/10/25 09:04:49;;;;;;;5.45;1.23;;;;;;;20.69;62.51;98970.91;5065484;27;102610;-74
2022/10/25 09:07:36;;;;;;;4.13;1.50;;;;;;;20.68;63.97;98977.31;5066435;27;102597;-74
2022/10/25 09:10:19;;;;;;;3.78;1.10;;;;;;;20.85;63.77;98970.91;5077455;27;103819;-74
2022/10/25 09:12:56;;;;;;;3.85;1.20;;;;;;;20.50;64.46;98976.59;5063387;27;103201;-74
2022/10/25 09:15:36;;;;;;;3.03;1.48;;;;;;;21.08;63.10;98977.28;5066957;27;102572;-74
2022/10/25 09:18:15;;;;;;;3.90;1.20;;;;;;;20.99;63.21;98983.66;5065377;27;102693;-74
2022/10/25 09:20:49;;;;;;;3.25;1.00;;;;;;;20.72;64.01;98981.31;5064280;27;103341;-74
2022/10/25 09:23:24;;;;;;;3.58;1.20;;;;;;;20.87;63.74;98971.59;5063397;27;103649;-74
2022/10/25 09:26:00;;;;;;;7.65;1.48;;;;;;;20.91;63.18;98986.34;5063502;27;102676;-74
2022/10/25 09:28:44;;;;;;;2.58;1.02;;;;;;;21.08;61.91;98976.47;5064413;27;104441;-74
2022/10/25 09:31:18;;;;;;;4.18;1.45;;;;;;;21.09;62.82;98978.97;5061448;27;103727;-74
2022/10/25 09:33:47;;;;;;;5.07;1.40;;;;;;;21.04;62.65;98975.94;5060818;27;104324;-74
2022/10/25 09:36:17;;;;;;;2.20;1.08;;;;;;;20.66;63.87;98976.63;5064169;27;102690;-74
2022/10/25 09:38:48;;;;;;;7.07;1.45;;;;;;;20.86;62.56;98971.72;5065086;27;102644;-74
2022/10/25 09:41:21;;;;;;;4.75;1.10;;;;;;;20.86;62.58;98969.88;5061687;27;103160;-74
2022/10/25 09:43:57;;;;;;;1.88;0.95;;;;;;;21.24;62.96;98977.28;5063895;27;103243;-74
2022/10/25 09:46:36;;;;;;;3.75;1.55;;;;;;;21.08;61.80;98982.66;5063096;27;102665;-74
2022/10/25 09:49:16;;;;;;;2.47;0.95;;;;;;;20.98;63.40;98981.97;5063059;27;102726;-74
2022/10/25 09:51:56;;;;;;;2.53;1.20;;;;;;;21.06;62.26;98973.91;5062311;27;104349;-74
2022/10/25 09:54:29;;;;;;;3.63;1.08;;;;;;;21.17;61.94;98976.25;5062066;27;103220;-74
2022/10/25 09:56:57;;;;;;;3.58;1.00;;;;;;;21.05;61.81;98968.72;5063038;27;102755;-74
2022/10/25 09:59:26;;;;;;;3.90;1.30;;;;;;;20.66;62.75;98969.41;5063896;27;102748;-74
2022/10/25 10:01:54;;;;;;;4.35;1.25;;;;;;;21.24;61.35;98969.22;5064716;27;103850;-74
2022/10/25 10:04:25;;;;;;;5.25;1.38;;;;;;;21.06;60.74;98967.69;5063249;27;104311;-74
2022/10/25 10:07:02;;;;;;;3.67;1.77;;;;;;;21.13;61.55;98968.72;5064756;27;102654;-74
2022/10/25 10:09:32;;;;;;;4.13;1.23;;;;;;;21.18;61.16;98967.19;5061874;27;103511;-74
2022/10/25 10:12:04;;;;;;;2.45;1.30;;;;;;;21.05;61.76;98972.22;5061800;27;104625;-74
2022/10/25 10:14:36;;;;;;;5.28;1.30;;;;;;;21.14;60.26;98976.59;5060415;27;104261;-74
2022/10/25 10:17:10;;;;;;;3.22;1.17;;;;;;;20.97;62.45;98982.16;5061766;27;102999;-74
2022/10/25 10:19:39;;;;;;;1.90;0.90;;;;;;;21.24;61.43;98977.28;5063412;27;103828;-74
2022/10/25 10:22:14;;;;;;;1.90;0.95;;;;;;;21.12;62.33;98973.25;5060268;27;104096;-74
2022/10/25 10:24:43;;;;;;;1.95;1.00;;;;;;;20.59;62.75;98967.56;5063167;27;103307;-75
2022/10/25 10:27:23;;;;;;;3.47;1.20;;;;;;;20.79;61.81;98969.75;5064556;27;102606;-74
2022/10/25 10:29:56;;;;;;;3.85;1.02;;;;;;;20.96;62.62;98962.50;5064147;27;103876;-75
2022/10/25 10:32:26;;;;;;;4.55;1.17;;;;;;;21.09;62.10;98960.16;5063750;27;103741;-75
2022/10/25 10:34:56;;;;;;;4.65;1.17;;;;;;;21.12;62.32;98954.44;5065774;27;103205;-75
2022/10/25 10:37:27;;;;;;;2.35;1.00;;;;;;;21.78;59.49;98954.03;5062838;27;102698;-75
2022/10/25 10:39:56;;;;;;;3.28;1.30;;;;;;;21.86;59.24;98955.88;5056924;27;103875;-74
2022/10/25 10:47:28;;;;;;;2.38;0.98;;;;;;;22.36;58.63;98948.19;5056285;27;103170;-74
2022/10/25 10:49:56;;;;;;;2.72;0.80;;;;;;;22.77;55.73;98940.63;5059641;27;102701;-74
2022/10/25 10:52:30;;;;;;;1.60;1.15;;;;;;;23.21;55.25;98938.00;5061627;27;104827;-75
2022/10/25 10:54:59;;;;;;;2.40;0.90;;;;;;;23.01;55.43;98935.03;5060320;27;106012;-74
2022/10/25 10:57:31;;;;;;;2.80;1.10;;;;;;;23.34;54.80;98931.97;5060859;27;103187;-74
2022/10/25 11:00:01;;;;;;;1.67;0.95;;;;;;;23.32;54.30;98918.69;5061138;27;102782;-74
2022/10/25 11:02:37;;;;;;;2.53;0.90;;;;;;;23.37;54.34;98929.72;5061589;27;104554;-75
2022/10/25 11:05:19;;;;;;;3.80;1.20;;;;;;;23.16;54.18;98928.81;5060000;27;103519;-75
2022/10/25 11:07:56;;;;;;;2.55;0.95;;;;;;;23.03;54.21;98916.81;5058521;27;103221;-74
2022/10/25 11:10:35;;;;;;;2.28;0.80;;;;;;;22.64;57.16;98926.09;5063058;27;102935;-74
2022/10/25 11:13:15;;;;;;;2.13;0.98;;;;;;;23.25;55.88;98914.19;5062391;27;103170;-75
2022/10/25 11:16:09;;;;;;;4.07;1.38;;;;;;;22.87;55.91;98918.84;5059542;27;103894;-75
2022/10/25 11:18:48;;;;;;;3.30;1.10;;;;;;;22.23;56.89;98914.81;5061484;27;103253;-75
2022/10/25 11:21:59;;;;;;;1.65;0.80;;;;;;;21.84;56.47;98907.63;5059898;27;102613;-74
2022/10/25 11:24:37;;;;;;;5.90;1.10;;;;;;;21.59;57.61;98916.81;5039984;27;103966;-74
2022/10/25 11:27:17;;;;;;;2.25;1.20;;;;;;;21.88;57.06;98910.84;5058391;27;104421;-74
2022/10/25 11:30:05;;;;;;;3.10;0.85;;;;;;;22.40;56.65;98911.78;5060626;27;103291;-75
2022/10/25 11:33:07;;;;;;;4.20;1.83;;;;;;;21.38;62.16;98909.38;5051068;27;104600;-78
2022/10/25 11:35:45;;;;;;;4.05;1.15;;;;;;;21.42;61.21;98914.41;5054718;27;104598;-74
2022/10/25 11:38:19;;;;;;;2.25;1.00;;;;;;;21.04;63.32;98922.22;5061413;27;103998;-74
2022/10/25 11:41:00;;;;;;;3.33;1.30;;;;;;;20.21;65.74;98924.22;5060964;27;103208;-74
2022/10/25 11:43:46;;;;;;;3.72;1.40;;;;;;;20.98;64.51;98922.03;5062762;27;102644;-74
2022/10/25 11:46:27;;;;;;;3.85;1.60;;;;;;;20.13;65.30;98929.59;5057766;27;102633;-73
2022/10/25 11:49:11;;;;;;;3.50;1.42;;;;;;;20.08;66.06;98929.25;5059688;27;104353;-74
2022/10/25 11:51:48;;;;;;;2.28;1.33;;;;;;;19.80;67.33;98922.50;5058672;27;103502;-74
2022/10/25 11:54:28;;;;;;;8.10;2.08;;;;;;;20.29;67.07;98925.28;5058396;27;102627;-74